createdAt,value
2022-12-01T00:01:19.008Z,5.60
2022-12-01T00:03:45.901Z,5.60
2022-12-01T00:06:21.460Z,5.60
2022-12-01T00:09:09.118Z,5.60
2022-12-01T00:11:37.375Z,5.60
2022-12-01T00:14:12.800Z,5.60
2022-12-01T00:16:40.944Z,5.60
2022-12-01T00:19:08.935Z,5.60
2022-12-01T00:21:35.633Z,5.60
2022-12-01T00:24:02.914Z,5.60
2022-12-01T00:26:29.952Z,5.60
2022-12-01T00:28:59.199Z,5.60
2022-12-01T00:31:26.785Z,5.60
2022-12-01T00:33:54.208Z,5.60
2022-12-01T00:36:22.776Z,5.60
2022-12-01T00:38:53.992Z,5.60
2022-12-01T00:41:21.428Z,5.60
2022-12-01T00:43:50.790Z,5.60
2022-12-01T00:46:18.154Z,5.60
2022-12-01T00:48:45.493Z,5.60
2022-12-01T00:51:12.099Z,5.60
2022-12-01T00:53:38.992Z,5.60
2022-12-01T00:56:06.399Z,5.60
2022-12-01T00:58:33.049Z,5.60
2022-12-01T01:01:02.003Z,5.60
2022-12-01T01:03:29.475Z,5.60
2022-12-01T01:05:56.989Z,5.60
2022-12-01T01:08:23.616Z,5.50
2022-12-01T01:10:51.052Z,5.50
2022-12-01T01:13:17.826Z,5.50
2022-12-01T01:15:45.177Z,5.50
2022-12-01T01:18:12.643Z,5.50
2022-12-01T01:20:39.521Z,5.50
2022-12-01T01:23:07.209Z,5.50
2022-12-01T01:25:33.999Z,5.50
2022-12-01T01:28:01.355Z,5.60
2022-12-01T01:30:28.123Z,5.60
2022-12-01T01:32:55.114Z,5.60
2022-12-01T01:35:22.500Z,5.60
2022-12-01T01:37:50.718Z,5.50
2022-12-01T01:40:18.454Z,5.50
2022-12-01T01:42:45.431Z,5.50
2022-12-01T01:45:28.760Z,5.50
2022-12-01T01:47:58.982Z,5.50
2022-12-01T01:50:28.068Z,5.50
2022-12-01T01:53:02.810Z,5.40
2022-12-01T01:55:31.595Z,5.50
2022-12-01T01:57:59.239Z,5.50
2022-12-01T02:00:26.488Z,5.50
2022-12-01T02:02:54.407Z,5.50
2022-12-01T02:05:27.454Z,5.40
2022-12-01T02:07:57.739Z,5.50
2022-12-01T02:10:30.288Z,5.40
2022-12-01T02:13:00.316Z,5.40
2022-12-01T02:15:40.902Z,5.40
2022-12-01T02:18:18.527Z,5.50
2022-12-01T02:21:06.272Z,5.40
2022-12-01T02:24:01.079Z,5.50
2022-12-01T02:26:34.633Z,5.50
2022-12-01T02:29:32.220Z,5.50
2022-12-01T02:32:28.328Z,5.50
2022-12-01T02:35:19.346Z,5.40
2022-12-01T02:37:55.698Z,5.40
2022-12-01T02:40:31.933Z,5.40
2022-12-01T02:43:06.082Z,5.40
2022-12-01T02:45:36.966Z,5.40
2022-12-01T02:48:11.319Z,5.40
2022-12-01T02:50:40.578Z,5.40
2022-12-01T02:53:10.625Z,5.40
2022-12-01T02:55:37.241Z,5.40
2022-12-01T02:58:14.334Z,5.40
2022-12-01T03:01:02.719Z,5.40
2022-12-01T03:03:46.174Z,5.40
2022-12-01T03:06:36.471Z,5.40
2022-12-01T03:09:09.642Z,5.40
2022-12-01T03:11:56.816Z,5.40
2022-12-01T03:14:37.043Z,5.40
2022-12-01T03:17:08.682Z,5.40
2022-12-01T03:19:50.894Z,5.40
2022-12-01T03:22:27.020Z,5.40
2022-12-01T03:24:56.159Z,5.40
2022-12-01T03:27:27.897Z,5.40
2022-12-01T03:29:58.304Z,5.40
2022-12-01T03:32:27.267Z,5.40
2022-12-01T03:35:00.241Z,5.40
2022-12-01T03:37:33.003Z,5.40
2022-12-01T03:40:02.606Z,5.50
2022-12-01T03:42:36.686Z,5.50
2022-12-01T03:45:15.600Z,5.50
2022-12-01T03:47:42.366Z,5.50
2022-12-01T03:50:14.279Z,5.40
2022-12-01T03:53:19.130Z,5.40
2022-12-01T03:55:52.441Z,5.40
2022-12-01T03:58:22.750Z,5.40
2022-12-01T04:00:53.233Z,5.40
2022-12-01T04:03:24.511Z,5.40
2022-12-01T04:05:52.257Z,5.40
2022-12-01T04:08:18.904Z,5.40
2022-12-01T04:10:46.178Z,5.40
2022-12-01T04:13:22.206Z,5.30
2022-12-01T04:15:50.965Z,5.40
2022-12-01T04:18:18.412Z,5.30
2022-12-01T04:20:49.755Z,5.30
2022-12-01T04:23:34.869Z,5.30
2022-12-01T04:26:04.563Z,5.30
2022-12-01T04:28:31.292Z,5.30
2022-12-01T04:30:58.618Z,5.30
2022-12-01T04:33:25.339Z,5.30
2022-12-01T04:36:00.323Z,5.30
2022-12-01T04:38:30.940Z,5.30
2022-12-01T04:40:58.640Z,5.30
2022-12-01T04:43:25.233Z,5.30
2022-12-01T04:45:52.456Z,5.30
2022-12-01T04:48:19.128Z,5.30
2022-12-01T04:50:49.336Z,5.30
2022-12-01T04:53:15.972Z,5.30
2022-12-01T04:55:42.850Z,5.30
2022-12-01T04:58:09.531Z,5.30
2022-12-01T05:00:37.918Z,5.30
2022-12-01T05:03:05.090Z,5.30
2022-12-01T05:05:32.403Z,5.30
2022-12-01T05:07:59.457Z,5.30
2022-12-01T05:10:27.049Z,5.30
2022-12-01T05:12:55.062Z,5.30
2022-12-01T05:15:22.351Z,5.30
2022-12-01T05:17:48.931Z,5.30
2022-12-01T05:20:40.880Z,5.30
2022-12-01T05:23:10.791Z,5.30
2022-12-01T05:25:39.597Z,5.30
2022-12-01T05:28:06.499Z,5.30
2022-12-01T05:30:33.940Z,5.30
2022-12-01T05:33:00.726Z,5.30
2022-12-01T05:35:27.977Z,5.30
2022-12-01T05:37:54.694Z,5.30
2022-12-01T05:40:21.997Z,5.30
2022-12-01T05:42:48.559Z,5.30
2022-12-01T05:45:15.918Z,5.30
2022-12-01T05:47:42.499Z,5.30
2022-12-01T05:50:10.231Z,5.30
2022-12-01T05:52:37.145Z,5.30
2022-12-01T05:55:05.493Z,5.30
2022-12-01T05:57:32.491Z,5.30
2022-12-01T06:00:00.448Z,5.30
2022-12-01T06:02:27.227Z,5.30
2022-12-01T06:04:54.485Z,5.30
2022-12-01T06:07:23.499Z,5.20
2022-12-01T06:09:51.215Z,5.20
2022-12-01T06:12:18.492Z,5.20
2022-12-01T06:14:46.267Z,5.20
2022-12-01T06:17:12.888Z,5.20
2022-12-01T06:19:40.190Z,5.20
2022-12-01T06:22:06.783Z,5.20
2022-12-01T06:24:34.038Z,5.20
2022-12-01T06:27:00.797Z,5.20
2022-12-01T06:29:27.709Z,5.20
2022-12-01T06:31:54.382Z,5.20
2022-12-01T06:34:21.762Z,5.20
2022-12-01T06:36:48.401Z,5.20
2022-12-01T06:39:17.023Z,5.20
2022-12-01T06:41:43.809Z,5.20
2022-12-01T06:44:11.476Z,5.20
2022-12-01T06:46:38.152Z,5.20
2022-12-01T06:49:05.956Z,5.20
2022-12-01T06:51:34.222Z,5.20
2022-12-01T06:54:05.520Z,5.20
2022-12-01T06:56:32.534Z,5.30
2022-12-01T06:58:59.936Z,5.20
2022-12-01T07:01:27.045Z,5.20
2022-12-01T07:03:55.277Z,5.30
2022-12-01T07:06:21.983Z,5.30
2022-12-01T07:08:49.275Z,5.30
2022-12-01T07:11:16.284Z,5.30
2022-12-01T07:13:47.263Z,5.30
2022-12-01T07:16:14.005Z,5.30
2022-12-01T07:18:41.108Z,5.30
2022-12-01T07:21:12.693Z,5.30
2022-12-01T07:23:40.323Z,5.30
2022-12-01T07:26:18.226Z,5.30
2022-12-01T07:28:46.087Z,5.30
2022-12-01T07:31:18.518Z,5.30
2022-12-01T07:33:46.248Z,5.30
2022-12-01T07:36:13.800Z,5.30
2022-12-01T07:38:40.981Z,5.40
2022-12-01T07:41:16.357Z,5.30
2022-12-01T07:43:43.727Z,5.40
2022-12-01T07:46:14.697Z,5.40
2022-12-01T07:48:46.289Z,5.40
2022-12-01T07:51:16.536Z,5.40
2022-12-01T07:53:45.420Z,5.40
2022-12-01T07:56:12.096Z,5.40
2022-12-01T07:58:39.315Z,5.40
2022-12-01T08:01:12.222Z,5.40
2022-12-01T08:03:40.445Z,5.50
2022-12-01T08:06:07.566Z,5.50
2022-12-01T08:08:36.702Z,5.50
2022-12-01T08:11:06.531Z,5.50
2022-12-01T08:13:34.167Z,5.50
2022-12-01T08:16:04.955Z,5.50
2022-12-01T08:18:35.628Z,5.50
2022-12-01T08:21:02.998Z,5.50
2022-12-01T08:23:30.848Z,5.50
2022-12-01T08:26:01.589Z,5.50
2022-12-01T08:28:29.498Z,5.50
2022-12-01T08:30:56.659Z,5.50
2022-12-01T08:33:24.473Z,5.50
2022-12-01T08:35:51.114Z,5.50
2022-12-01T08:38:18.486Z,5.50
2022-12-01T08:40:45.143Z,5.50
2022-12-01T08:43:23.079Z,5.50
2022-12-01T08:46:02.529Z,5.50
2022-12-01T08:48:30.368Z,5.60
2022-12-01T08:51:12.535Z,5.60
2022-12-01T08:53:45.498Z,5.50
2022-12-01T08:56:23.968Z,5.60
2022-12-01T08:58:51.905Z,5.60
2022-12-01T09:01:19.501Z,5.60
2022-12-01T09:03:46.944Z,5.60
2022-12-01T09:06:22.587Z,5.70
2022-12-01T09:08:49.681Z,5.70
2022-12-01T09:11:18.295Z,5.70
2022-12-01T09:13:52.968Z,5.70
2022-12-01T09:16:21.619Z,5.60
2022-12-01T09:18:49.220Z,5.70
2022-12-01T09:21:21.866Z,5.70
2022-12-01T09:23:49.461Z,5.70
2022-12-01T09:26:18.878Z,5.70
2022-12-01T09:28:47.384Z,5.70
2022-12-01T09:31:16.051Z,5.70
2022-12-01T09:33:43.363Z,5.70
2022-12-01T09:36:10.541Z,5.70
2022-12-01T09:38:39.235Z,5.70
2022-12-01T09:41:19.426Z,5.70
2022-12-01T09:43:54.213Z,5.60
2022-12-01T09:46:25.573Z,5.60
2022-12-01T09:48:54.182Z,5.60
2022-12-01T09:51:26.290Z,5.60
2022-12-01T09:53:59.469Z,5.60
2022-12-01T09:56:32.218Z,5.60
2022-12-01T09:59:04.382Z,5.70
2022-12-01T10:01:38.942Z,5.70
2022-12-01T10:04:11.686Z,5.70
2022-12-01T10:06:47.941Z,5.70
2022-12-01T10:09:28.723Z,5.70
2022-12-01T10:12:01.826Z,5.60
2022-12-01T10:14:33.047Z,5.60
2022-12-01T10:17:38.627Z,5.60
2022-12-01T10:20:25.279Z,5.70
2022-12-01T10:23:18.611Z,5.70
2022-12-01T10:26:01.464Z,5.70
2022-12-01T10:28:58.283Z,5.70
2022-12-01T10:31:43.434Z,5.70
2022-12-01T10:34:20.333Z,5.70
2022-12-01T10:36:47.557Z,5.70
2022-12-01T10:39:33.147Z,5.70
2022-12-01T10:42:08.111Z,5.60
2022-12-01T10:44:35.702Z,5.70
2022-12-01T10:47:02.992Z,5.60
2022-12-01T10:49:38.695Z,5.60
2022-12-01T10:52:07.311Z,5.70
2022-12-01T10:54:39.535Z,5.60
2022-12-01T10:57:13.735Z,5.70
2022-12-01T11:00:08.571Z,5.70
2022-12-01T11:02:36.432Z,5.60
2022-12-01T11:05:19.244Z,5.70
2022-12-01T11:07:47.458Z,5.70
2022-12-01T11:10:33.130Z,5.70
2022-12-01T11:13:24.805Z,5.80
2022-12-01T11:15:54.616Z,5.70
2022-12-01T11:18:30.125Z,5.80
2022-12-01T11:21:16.564Z,5.80
2022-12-01T11:23:49.023Z,5.80
2022-12-01T11:26:17.733Z,5.80
2022-12-01T11:29:21.474Z,5.80
2022-12-01T11:31:50.621Z,5.80
2022-12-01T11:34:23.657Z,5.80
2022-12-01T11:36:53.434Z,5.80
2022-12-01T11:39:38.209Z,5.80
2022-12-01T11:42:12.616Z,5.80
2022-12-01T11:44:53.272Z,5.80
2022-12-01T11:47:25.618Z,5.70
2022-12-01T11:49:54.178Z,5.70
2022-12-01T11:52:45.610Z,5.70
2022-12-01T11:55:21.741Z,5.70
2022-12-01T11:57:52.918Z,5.70
2022-12-01T12:00:41.232Z,5.70
2022-12-01T12:03:19.807Z,5.60
2022-12-01T12:06:38.479Z,5.60
2022-12-01T12:09:03.474Z,5.60
2022-12-01T12:11:30.145Z,5.60
2022-12-01T12:14:03.543Z,5.60
2022-12-01T12:17:03.759Z,5.60
2022-12-01T12:23:15.256Z,5.60
2022-12-01T12:26:08.195Z,5.60
2022-12-01T12:28:45.902Z,5.60
2022-12-01T12:31:28.882Z,5.60
2022-12-01T12:34:23.916Z,5.60
2022-12-01T12:37:02.807Z,5.60
2022-12-01T12:39:54.571Z,5.60
2022-12-01T12:42:37.986Z,5.60
2022-12-01T12:45:08.100Z,5.70
2022-12-01T12:48:03.094Z,5.60
2022-12-01T12:51:13.089Z,5.60
2022-12-01T12:54:10.769Z,5.70
2022-12-01T12:56:38.622Z,5.70
2022-12-01T12:59:12.777Z,5.60
2022-12-01T13:02:04.158Z,5.60
2022-12-01T13:04:39.557Z,5.60
2022-12-01T13:07:48.674Z,5.60
2022-12-01T13:10:37.821Z,5.50
2022-12-01T13:13:19.506Z,5.60
2022-12-01T13:15:49.027Z,5.60
2022-12-01T13:18:43.619Z,5.60
2022-12-01T13:21:20.689Z,5.60
2022-12-01T13:23:49.818Z,5.60
2022-12-01T13:26:19.466Z,5.60
2022-12-01T13:28:52.914Z,5.70
2022-12-01T13:31:20.983Z,5.70
2022-12-01T13:34:03.948Z,5.70
2022-12-01T13:36:46.769Z,5.70
2022-12-01T13:39:18.082Z,5.70
2022-12-01T13:41:45.870Z,5.70
2022-12-01T13:44:25.825Z,5.70
2022-12-01T13:46:57.070Z,5.70
2022-12-01T13:49:37.065Z,5.70
2022-12-01T13:52:21.684Z,5.70
2022-12-01T13:55:07.648Z,5.80
2022-12-01T13:57:47.986Z,5.80
2022-12-01T14:00:26.307Z,5.80
2022-12-01T14:03:11.916Z,5.70
2022-12-01T14:05:53.710Z,5.80
2022-12-01T14:08:34.069Z,5.80
2022-12-01T14:11:17.925Z,5.80
2022-12-01T14:13:57.053Z,5.70
2022-12-01T14:16:24.939Z,5.70
2022-12-01T14:18:56.719Z,5.70
2022-12-01T14:21:43.874Z,5.70
2022-12-01T14:24:27.930Z,5.70
2022-12-01T14:26:55.205Z,5.70
2022-12-01T14:29:32.214Z,5.70
2022-12-01T14:32:03.815Z,5.70
2022-12-01T14:34:34.981Z,5.70
2022-12-01T14:37:18.885Z,5.70
2022-12-01T14:40:15.678Z,5.70
2022-12-01T14:43:05.384Z,5.70
2022-12-01T14:45:40.316Z,5.70
2022-12-01T14:48:18.348Z,5.70
2022-12-01T14:50:51.977Z,5.70
2022-12-01T14:53:34.129Z,5.70
2022-12-01T14:56:12.539Z,5.70
2022-12-01T14:58:39.503Z,5.70
2022-12-01T15:01:12.132Z,5.70
2022-12-01T15:03:57.916Z,5.70
2022-12-01T15:06:27.100Z,5.70
2022-12-01T15:09:32.028Z,5.70
2022-12-01T15:11:58.513Z,5.60
2022-12-01T15:14:31.438Z,5.60
2022-12-01T15:16:58.531Z,5.60
2022-12-01T15:19:34.869Z,5.50
2022-12-01T15:22:11.145Z,5.50
2022-12-01T15:24:38.371Z,5.50
2022-12-01T15:27:21.062Z,5.50
2022-12-01T15:29:48.407Z,5.40
2022-12-01T15:32:18.502Z,5.40
2022-12-01T15:34:48.952Z,5.40
2022-12-01T15:37:18.873Z,5.30
2022-12-01T15:39:49.469Z,5.30
2022-12-01T15:42:33.308Z,5.40
2022-12-01T15:45:01.222Z,5.40
2022-12-01T15:47:43.499Z,5.40
2022-12-01T15:50:31.096Z,5.40
2022-12-01T15:53:06.212Z,5.40
2022-12-01T15:55:35.102Z,5.40
2022-12-01T15:58:06.614Z,5.30
2022-12-01T16:00:33.378Z,5.30
2022-12-01T16:03:02.105Z,5.30
2022-12-01T16:05:32.746Z,5.30
2022-12-01T16:08:19.153Z,5.30
2022-12-01T16:11:06.523Z,5.30
2022-12-01T16:13:49.927Z,5.30
2022-12-01T16:16:39.859Z,5.30
2022-12-01T16:19:09.282Z,5.30
2022-12-01T16:21:55.486Z,5.30
2022-12-01T16:24:53.847Z,5.30
2022-12-01T16:27:30.612Z,5.30
2022-12-01T16:29:57.231Z,5.20
2022-12-01T16:32:43.752Z,5.20
2022-12-01T16:35:30.664Z,5.20
2022-12-01T16:37:58.513Z,5.20
2022-12-01T16:40:25.768Z,5.20
2022-12-01T16:42:52.593Z,5.20
2022-12-01T16:45:20.026Z,5.10
2022-12-01T16:47:48.308Z,5.10
2022-12-01T16:50:17.586Z,5.10
2022-12-01T16:52:45.802Z,5.10
2022-12-01T16:55:38.365Z,5.10
2022-12-01T16:58:05.161Z,5.10
2022-12-01T17:00:33.000Z,5.10
2022-12-01T17:03:00.286Z,5.10
2022-12-01T17:05:28.285Z,5.10
2022-12-01T17:07:55.176Z,5.10
2022-12-01T17:10:23.289Z,5.10
2022-12-01T17:12:50.337Z,5.10
2022-12-01T17:15:18.009Z,5.10
2022-12-01T17:17:44.673Z,5.00
2022-12-01T17:20:12.282Z,5.00
2022-12-01T17:22:39.043Z,5.00
2022-12-01T17:25:06.083Z,5.00
2022-12-01T17:27:32.839Z,5.00
2022-12-01T17:30:01.985Z,5.00
2022-12-01T17:32:28.732Z,5.00
2022-12-01T17:34:55.326Z,5.00
2022-12-01T17:37:22.165Z,5.00
2022-12-01T17:39:50.122Z,5.00
2022-12-01T17:42:17.193Z,5.00
2022-12-01T17:44:43.815Z,5.00
2022-12-01T17:47:10.975Z,5.00
2022-12-01T17:49:37.684Z,5.00
2022-12-01T17:52:05.991Z,5.00
2022-12-01T17:54:33.845Z,4.90
2022-12-01T17:57:01.358Z,5.00
2022-12-01T17:59:28.081Z,4.90
2022-12-01T18:01:55.079Z,4.90
2022-12-01T18:04:21.691Z,4.90
2022-12-01T18:06:53.843Z,4.90
2022-12-01T18:09:21.228Z,4.90
2022-12-01T18:11:47.940Z,4.90
2022-12-01T18:14:17.547Z,4.90
2022-12-01T18:16:45.684Z,4.90
2022-12-01T18:19:12.564Z,4.90
2022-12-01T18:21:43.629Z,4.90
2022-12-01T18:24:10.478Z,4.90
2022-12-01T18:26:40.011Z,4.90
2022-12-01T18:29:25.521Z,4.90
2022-12-01T18:32:00.196Z,4.90
2022-12-01T18:34:29.427Z,4.90
2022-12-01T18:36:57.180Z,4.90
2022-12-01T18:39:24.134Z,4.90
2022-12-01T18:41:51.572Z,4.90
2022-12-01T18:44:18.298Z,4.90
2022-12-01T18:46:45.471Z,4.90
2022-12-01T18:49:12.500Z,4.90
2022-12-01T18:51:40.496Z,4.90
2022-12-01T18:54:08.861Z,4.90
2022-12-01T18:56:36.265Z,4.90
2022-12-01T18:59:05.821Z,4.90
2022-12-01T19:01:37.295Z,4.80
2022-12-01T19:04:05.854Z,4.80
2022-12-01T19:06:34.940Z,4.80
2022-12-01T19:09:04.387Z,4.80
2022-12-01T19:11:31.639Z,4.80
2022-12-01T19:13:58.311Z,4.80
2022-12-01T19:16:26.177Z,4.80
2022-12-01T19:18:53.165Z,4.80
2022-12-01T19:21:21.510Z,4.80
2022-12-01T19:23:49.511Z,4.80
2022-12-01T19:26:19.238Z,4.80
2022-12-01T19:28:46.739Z,4.80
2022-12-01T19:31:19.515Z,4.70
2022-12-01T19:33:47.062Z,4.70
2022-12-01T19:36:18.058Z,4.80
2022-12-01T19:38:45.495Z,4.80
2022-12-01T19:41:14.128Z,4.70
2022-12-01T19:43:42.505Z,4.70
2022-12-01T19:46:13.132Z,4.70
2022-12-01T19:48:40.459Z,4.70
2022-12-01T19:51:15.284Z,4.70
2022-12-01T19:53:41.952Z,4.70
2022-12-01T19:56:09.492Z,4.70
2022-12-01T19:58:36.161Z,4.70
2022-12-01T20:01:11.877Z,4.70
2022-12-01T20:03:40.498Z,4.70
2022-12-01T20:06:13.649Z,4.70
2022-12-01T20:08:40.686Z,4.60
2022-12-01T20:11:08.086Z,4.60
2022-12-01T20:13:37.485Z,4.60
2022-12-01T20:16:07.318Z,4.60
2022-12-01T20:18:34.582Z,4.60
2022-12-01T20:21:12.571Z,4.60
2022-12-01T20:23:39.182Z,4.60
2022-12-01T20:26:07.468Z,4.50
2022-12-01T20:28:36.855Z,4.50
2022-12-01T20:31:08.508Z,4.50
2022-12-01T20:33:35.496Z,4.50
2022-12-01T20:36:02.400Z,4.40
2022-12-01T20:38:29.037Z,4.40
2022-12-01T20:40:55.832Z,4.40
2022-12-01T20:43:22.810Z,4.40
2022-12-01T20:45:49.653Z,4.40
2022-12-01T20:48:17.664Z,4.40
2022-12-01T20:50:44.361Z,4.40
2022-12-01T20:53:11.131Z,4.40
2022-12-01T20:55:38.612Z,4.30
2022-12-01T20:58:08.449Z,4.30
2022-12-01T21:00:41.172Z,4.20
2022-12-01T21:03:08.030Z,4.20
2022-12-01T21:05:37.938Z,4.20
2022-12-01T21:08:07.113Z,4.20
2022-12-01T21:10:37.907Z,4.10
2022-12-01T21:13:42.434Z,4.20
2022-12-01T21:16:24.906Z,4.20
2022-12-01T21:19:00.141Z,4.20
2022-12-01T21:21:31.977Z,4.20
2022-12-01T21:24:08.524Z,4.10
2022-12-01T21:26:46.611Z,4.20
2022-12-01T21:29:14.259Z,4.10
2022-12-01T21:31:40.859Z,4.20
2022-12-01T21:34:25.828Z,4.10
2022-12-01T21:36:55.884Z,4.10
2022-12-01T21:39:24.585Z,4.10
2022-12-01T21:41:54.953Z,4.10
2022-12-01T21:44:24.166Z,4.10
2022-12-01T21:46:56.428Z,4.20
2022-12-01T21:49:37.248Z,4.20
2022-12-01T21:52:13.666Z,4.10
2022-12-01T21:54:40.987Z,4.10
2022-12-01T21:57:33.944Z,4.10
2022-12-01T22:00:28.229Z,4.10
2022-12-01T22:03:25.810Z,4.10
2022-12-01T22:06:28.420Z,4.10
2022-12-01T22:08:57.539Z,4.10
2022-12-01T22:11:26.953Z,4.00
2022-12-01T22:14:09.224Z,4.00
2022-12-01T22:16:41.037Z,4.00
2022-12-01T22:19:33.413Z,4.00
2022-12-01T22:22:21.450Z,4.00
2022-12-01T22:25:00.362Z,4.00
2022-12-01T22:27:38.386Z,4.00
2022-12-01T22:30:05.613Z,4.00
2022-12-01T22:32:38.011Z,3.90
2022-12-01T22:35:23.842Z,4.00
2022-12-01T22:37:53.581Z,3.90
2022-12-01T22:40:37.847Z,3.90
2022-12-01T22:43:40.254Z,3.90
2022-12-01T22:46:15.266Z,3.90
2022-12-01T22:49:03.961Z,3.90
2022-12-01T22:51:50.653Z,3.90
2022-12-01T22:54:27.991Z,3.90
2022-12-01T22:57:24.542Z,3.90
2022-12-01T22:59:52.955Z,3.90
2022-12-01T23:02:34.395Z,3.90
2022-12-01T23:05:14.415Z,3.90
2022-12-01T23:07:42.829Z,3.90
2022-12-01T23:10:20.862Z,3.90
2022-12-01T23:12:49.455Z,3.80
2022-12-01T23:15:32.860Z,3.80
2022-12-01T23:18:09.391Z,3.80
2022-12-01T23:20:36.991Z,3.90
2022-12-01T23:23:08.176Z,3.80
2022-12-01T23:25:36.090Z,3.80
2022-12-01T23:28:07.208Z,3.90
2022-12-01T23:30:36.011Z,3.80
2022-12-01T23:33:09.372Z,3.80
2022-12-01T23:35:44.296Z,3.90
2022-12-01T23:38:16.014Z,3.80
2022-12-01T23:40:43.304Z,3.80
2022-12-01T23:43:20.853Z,3.80
2022-12-01T23:45:51.057Z,3.80
2022-12-01T23:48:22.389Z,3.80
2022-12-01T23:50:52.668Z,3.80
2022-12-01T23:53:31.264Z,3.70
2022-12-01T23:56:10.458Z,3.80
2022-12-01T23:58:37.046Z,3.70
